sensor_id;sensor_type;location;lat;lon;timestamp;P1;durP1;ratioP1;P2;durP2;ratioP2
1725;SDS011;41776;48.260;8.928;2022-12-18T00:02:18;32.20;;;11.43;;
1725;SDS011;41776;48.260;8.928;2022-12-18T00:04:45;32.57;;;11.43;;
1725;SDS011;41776;48.260;8.928;2022-12-18T00:07:11;31.17;;;10.80;;
1725;SDS011;41776;48.260;8.928;2022-12-18T00:09:38;36.20;;;12.20;;
1725;SDS011;41776;48.260;8.928;2022-12-18T00:12:06;31.20;;;11.70;;
1725;SDS011;41776;48.260;8.928;2022-12-18T00:14:33;32.47;;;11.23;;
1725;SDS011;41776;48.260;8.928;2022-12-18T00:16:59;43.47;;;14.70;;
1725;SDS011;41776;48.260;8.928;2022-12-18T00:19:26;34.87;;;12.83;;
1725;SDS011;41776;48.260;8.928;2022-12-18T00:21:53;34.90;;;11.77;;
1725;SDS011;41776;48.260;8.928;2022-12-18T00:24:19;29.30;;;10.80;;
1725;SDS011;41776;48.260;8.928;2022-12-18T00:26:46;33.30;;;11.30;;
1725;SDS011;41776;48.260;8.928;2022-12-18T00:29:14;34.90;;;11.97;;
1725;SDS011;41776;48.260;8.928;2022-12-18T00:31:41;29.03;;;11.23;;
1725;SDS011;41776;48.260;8.928;2022-12-18T00:34:09;34.70;;;11.10;;
1725;SDS011;41776;48.260;8.928;2022-12-18T00:36:36;38.23;;;12.37;;
1725;SDS011;41776;48.260;8.928;2022-12-18T00:39:04;36.50;;;12.97;;
1725;SDS011;41776;48.260;8.928;2022-12-18T00:41:31;38.17;;;12.13;;
1725;SDS011;41776;48.260;8.928;2022-12-18T00:44:17;45.90;;;14.50;;
1725;SDS011;41776;48.260;8.928;2022-12-18T00:46:44;43.77;;;14.93;;
1725;SDS011;41776;48.260;8.928;2022-12-18T00:49:11;42.13;;;13.63;;
1725;SDS011;41776;48.260;8.928;2022-12-18T00:51:38;47.60;;;14.13;;
1725;SDS011;41776;48.260;8.928;2022-12-18T00:54:05;47.30;;;14.93;;
1725;SDS011;41776;48.260;8.928;2022-12-18T00:56:32;44.33;;;14.03;;
1725;SDS011;41776;48.260;8.928;2022-12-18T00:58:58;46.60;;;14.13;;
1725;SDS011;41776;48.260;8.928;2022-12-18T01:01:26;43.17;;;13.97;;
1725;SDS011;41776;48.260;8.928;2022-12-18T01:03:53;47.20;;;14.10;;
1725;SDS011;41776;48.260;8.928;2022-12-18T01:06:19;44.20;;;13.33;;
1725;SDS011;41776;48.260;8.928;2022-12-18T01:08:46;44.80;;;14.60;;
1725;SDS011;41776;48.260;8.928;2022-12-18T01:11:13;40.87;;;13.37;;
1725;SDS011;41776;48.260;8.928;2022-12-18T01:13:42;39.33;;;13.33;;
1725;SDS011;41776;48.260;8.928;2022-12-18T01:16:10;43.37;;;13.47;;
1725;SDS011;41776;48.260;8.928;2022-12-18T01:18:39;41.40;;;14.10;;
1725;SDS011;41776;48.260;8.928;2022-12-18T01:21:07;42.90;;;13.10;;
1725;SDS011;41776;48.260;8.928;2022-12-18T01:23:34;34.87;;;12.60;;
1725;SDS011;41776;48.260;8.928;2022-12-18T01:26:03;47.87;;;14.13;;
1725;SDS011;41776;48.260;8.928;2022-12-18T01:28:31;37.77;;;12.23;;
1725;SDS011;41776;48.260;8.928;2022-12-18T01:30:57;46.00;;;13.87;;
1725;SDS011;41776;48.260;8.928;2022-12-18T01:33:34;43.37;;;12.87;;
1725;SDS011;41776;48.260;8.928;2022-12-18T01:36:02;50.00;;;14.40;;
1725;SDS011;41776;48.260;8.928;2022-12-18T01:38:29;40.03;;;11.87;;
1725;SDS011;41776;48.260;8.928;2022-12-18T01:40:56;45.90;;;13.93;;
1725;SDS011;41776;48.260;8.928;2022-12-18T01:46:09;41.13;;;12.57;;
1725;SDS011;41776;48.260;8.928;2022-12-18T01:48:35;38.93;;;12.57;;
1725;SDS011;41776;48.260;8.928;2022-12-18T01:51:04;45.90;;;13.47;;
1725;SDS011;41776;48.260;8.928;2022-12-18T01:53:32;37.97;;;12.70;;
1725;SDS011;41776;48.260;8.928;2022-12-18T01:55:58;44.23;;;13.23;;
1725;SDS011;41776;48.260;8.928;2022-12-18T01:58:27;45.57;;;13.37;;
1725;SDS011;41776;48.260;8.928;2022-12-18T02:01:01;39.03;;;13.57;;
1725;SDS011;41776;48.260;8.928;2022-12-18T02:03:28;44.47;;;12.50;;
1725;SDS011;41776;48.260;8.928;2022-12-18T02:05:56;48.10;;;13.67;;
1725;SDS011;41776;48.260;8.928;2022-12-18T02:08:34;50.67;;;13.83;;
1725;SDS011;41776;48.260;8.928;2022-12-18T02:11:08;42.43;;;12.60;;
1725;SDS011;41776;48.260;8.928;2022-12-18T02:13:43;47.90;;;12.40;;
1725;SDS011;41776;48.260;8.928;2022-12-18T02:16:18;50.00;;;13.40;;
1725;SDS011;41776;48.260;8.928;2022-12-18T02:18:51;47.83;;;13.87;;
1725;SDS011;41776;48.260;8.928;2022-12-18T02:21:24;43.83;;;14.07;;
1725;SDS011;41776;48.260;8.928;2022-12-18T02:24:00;37.40;;;12.80;;
1725;SDS011;41776;48.260;8.928;2022-12-18T02:26:42;53.43;;;14.50;;
1725;SDS011;41776;48.260;8.928;2022-12-18T02:29:14;38.90;;;13.90;;
1725;SDS011;41776;48.260;8.928;2022-12-18T02:31:44;50.47;;;13.87;;
1725;SDS011;41776;48.260;8.928;2022-12-18T02:34:13;48.80;;;13.57;;
1725;SDS011;41776;48.260;8.928;2022-12-18T02:36:42;49.10;;;14.80;;
1725;SDS011;41776;48.260;8.928;2022-12-18T02:39:11;44.00;;;14.73;;
1725;SDS011;41776;48.260;8.928;2022-12-18T02:41:39;46.83;;;15.00;;
1725;SDS011;41776;48.260;8.928;2022-12-18T02:44:08;55.97;;;15.77;;
1725;SDS011;41776;48.260;8.928;2022-12-18T02:46:38;46.60;;;14.37;;
1725;SDS011;41776;48.260;8.928;2022-12-18T02:49:11;47.97;;;13.80;;
1725;SDS011;41776;48.260;8.928;2022-12-18T02:51:48;39.30;;;11.47;;
1725;SDS011;41776;48.260;8.928;2022-12-18T02:54:21;58.97;;;21.13;;
1725;SDS011;41776;48.260;8.928;2022-12-18T02:56:57;42.70;;;14.33;;
1725;SDS011;41776;48.260;8.928;2022-12-18T02:59:31;42.27;;;14.00;;
1725;SDS011;41776;48.260;8.928;2022-12-18T03:02:06;37.23;;;13.10;;
1725;SDS011;41776;48.260;8.928;2022-12-18T03:04:42;39.33;;;12.43;;
1725;SDS011;41776;48.260;8.928;2022-12-18T03:07:15;39.03;;;13.53;;
1725;SDS011;41776;48.260;8.928;2022-12-18T03:09:47;43.50;;;13.03;;
1725;SDS011;41776;48.260;8.928;2022-12-18T03:12:18;33.27;;;11.67;;
1725;SDS011;41776;48.260;8.928;2022-12-18T03:14:50;40.03;;;13.37;;
1725;SDS011;41776;48.260;8.928;2022-12-18T03:17:22;38.53;;;12.87;;
1725;SDS011;41776;48.260;8.928;2022-12-18T03:19:52;37.53;;;13.10;;
1725;SDS011;41776;48.260;8.928;2022-12-18T03:22:22;47.97;;;13.60;;
1725;SDS011;41776;48.260;8.928;2022-12-18T03:24:53;47.67;;;14.07;;
1725;SDS011;41776;48.260;8.928;2022-12-18T03:27:23;39.50;;;13.87;;
1725;SDS011;41776;48.260;8.928;2022-12-18T03:29:52;34.10;;;12.40;;
1725;SDS011;41776;48.260;8.928;2022-12-18T03:32:33;52.07;;;14.10;;
1725;SDS011;41776;48.260;8.928;2022-12-18T03:35:04;50.70;;;14.77;;
1725;SDS011;41776;48.260;8.928;2022-12-18T03:37:33;48.10;;;13.97;;
1725;SDS011;41776;48.260;8.928;2022-12-18T03:40:00;45.87;;;13.03;;
1725;SDS011;41776;48.260;8.928;2022-12-18T03:42:28;42.10;;;12.70;;
1725;SDS011;41776;48.260;8.928;2022-12-18T03:45:01;39.93;;;12.50;;
1725;SDS011;41776;48.260;8.928;2022-12-18T03:47:34;34.67;;;11.80;;
1725;SDS011;41776;48.260;8.928;2022-12-18T03:50:08;40.33;;;12.20;;
1725;SDS011;41776;48.260;8.928;2022-12-18T03:52:41;37.53;;;11.50;;
1725;SDS011;41776;48.260;8.928;2022-12-18T03:55:13;37.03;;;12.63;;
1725;SDS011;41776;48.260;8.928;2022-12-18T03:57:41;30.40;;;11.33;;
1725;SDS011;41776;48.260;8.928;2022-12-18T04:00:11;37.43;;;11.67;;
1725;SDS011;41776;48.260;8.928;2022-12-18T04:02:41;35.47;;;11.00;;
1725;SDS011;41776;48.260;8.928;2022-12-18T04:05:11;37.83;;;13.03;;
1725;SDS011;41776;48.260;8.928;2022-12-18T04:07:39;39.33;;;12.27;;
1725;SDS011;41776;48.260;8.928;2022-12-18T04:10:07;39.87;;;14.00;;
1725;SDS011;41776;48.260;8.928;2022-12-18T04:12:36;39.00;;;12.17;;
1725;SDS011;41776;48.260;8.928;2022-12-18T04:15:05;42.03;;;11.80;;
1725;SDS011;41776;48.260;8.928;2022-12-18T04:17:33;38.90;;;12.53;;
1725;SDS011;41776;48.260;8.928;2022-12-18T04:19:59;38.40;;;12.40;;
1725;SDS011;41776;48.260;8.928;2022-12-18T04:22:26;37.07;;;11.90;;
1725;SDS011;41776;48.260;8.928;2022-12-18T04:24:53;44.10;;;12.70;;
1725;SDS011;41776;48.260;8.928;2022-12-18T04:27:19;48.70;;;13.37;;
1725;SDS011;41776;48.260;8.928;2022-12-18T04:29:46;45.73;;;12.93;;
1725;SDS011;41776;48.260;8.928;2022-12-18T04:32:13;44.70;;;13.37;;
1725;SDS011;41776;48.260;8.928;2022-12-18T04:34:40;49.90;;;14.93;;
1725;SDS011;41776;48.260;8.928;2022-12-18T04:37:06;52.30;;;13.80;;
1725;SDS011;41776;48.260;8.928;2022-12-18T04:39:33;54.63;;;15.37;;
1725;SDS011;41776;48.260;8.928;2022-12-18T04:42:00;59.17;;;16.07;;
1725;SDS011;41776;48.260;8.928;2022-12-18T04:44:27;51.93;;;15.17;;
1725;SDS011;41776;48.260;8.928;2022-12-18T04:46:54;50.97;;;14.53;;
1725;SDS011;41776;48.260;8.928;2022-12-18T04:49:22;55.40;;;15.63;;
1725;SDS011;41776;48.260;8.928;2022-12-18T04:51:48;66.23;;;17.83;;
1725;SDS011;41776;48.260;8.928;2022-12-18T04:54:15;74.50;;;18.47;;
1725;SDS011;41776;48.260;8.928;2022-12-18T04:56:41;63.87;;;17.40;;
1725;SDS011;41776;48.260;8.928;2022-12-18T04:59:08;77.07;;;19.53;;
1725;SDS011;41776;48.260;8.928;2022-12-18T05:01:34;66.93;;;18.53;;
1725;SDS011;41776;48.260;8.928;2022-12-18T05:04:04;63.73;;;18.20;;
1725;SDS011;41776;48.260;8.928;2022-12-18T05:06:31;57.77;;;17.57;;
1725;SDS011;41776;48.260;8.928;2022-12-18T05:08:58;49.20;;;16.50;;
1725;SDS011;41776;48.260;8.928;2022-12-18T05:11:25;57.30;;;16.50;;
1725;SDS011;41776;48.260;8.928;2022-12-18T05:13:51;54.40;;;16.10;;
1725;SDS011;41776;48.260;8.928;2022-12-18T05:16:18;53.67;;;14.87;;
1725;SDS011;41776;48.260;8.928;2022-12-18T05:18:44;54.27;;;16.40;;
1725;SDS011;41776;48.260;8.928;2022-12-18T05:21:11;47.57;;;14.53;;
1725;SDS011;41776;48.260;8.928;2022-12-18T05:23:39;45.40;;;15.27;;
1725;SDS011;41776;48.260;8.928;2022-12-18T05:26:06;53.93;;;15.60;;
1725;SDS011;41776;48.260;8.928;2022-12-18T05:28:34;57.37;;;17.60;;
1725;SDS011;41776;48.260;8.928;2022-12-18T05:31:02;51.87;;;14.63;;
1725;SDS011;41776;48.260;8.928;2022-12-18T05:33:30;58.30;;;16.33;;
1725;SDS011;41776;48.260;8.928;2022-12-18T05:35:58;44.53;;;13.97;;
1725;SDS011;41776;48.260;8.928;2022-12-18T05:38:26;49.57;;;15.23;;
1725;SDS011;41776;48.260;8.928;2022-12-18T05:40:55;48.63;;;16.13;;
1725;SDS011;41776;48.260;8.928;2022-12-18T05:43:24;45.80;;;14.50;;
1725;SDS011;41776;48.260;8.928;2022-12-18T05:45:51;44.17;;;13.80;;
1725;SDS011;41776;48.260;8.928;2022-12-18T05:48:18;46.07;;;13.60;;
1725;SDS011;41776;48.260;8.928;2022-12-18T05:50:46;48.87;;;15.70;;
1725;SDS011;41776;48.260;8.928;2022-12-18T05:53:14;53.17;;;15.57;;
1725;SDS011;41776;48.260;8.928;2022-12-18T05:55:42;58.03;;;15.47;;
1725;SDS011;41776;48.260;8.928;2022-12-18T05:58:12;55.20;;;15.87;;
1725;SDS011;41776;48.260;8.928;2022-12-18T06:00:40;52.43;;;14.30;;
1725;SDS011;41776;48.260;8.928;2022-12-18T06:03:08;42.47;;;13.63;;
1725;SDS011;41776;48.260;8.928;2022-12-18T06:05:35;47.47;;;14.60;;
1725;SDS011;41776;48.260;8.928;2022-12-18T06:08:02;43.27;;;14.83;;
1725;SDS011;41776;48.260;8.928;2022-12-18T06:10:29;50.87;;;14.27;;
1725;SDS011;41776;48.260;8.928;2022-12-18T06:12:56;48.97;;;14.47;;
1725;SDS011;41776;48.260;8.928;2022-12-18T06:15:24;44.07;;;14.07;;
1725;SDS011;41776;48.260;8.928;2022-12-18T06:17:50;48.93;;;14.67;;
1725;SDS011;41776;48.260;8.928;2022-12-18T06:20:17;51.87;;;16.20;;
1725;SDS011;41776;48.260;8.928;2022-12-18T06:22:44;54.70;;;15.57;;
1725;SDS011;41776;48.260;8.928;2022-12-18T06:25:10;46.67;;;13.57;;
1725;SDS011;41776;48.260;8.928;2022-12-18T06:27:37;54.67;;;13.60;;
1725;SDS011;41776;48.260;8.928;2022-12-18T06:30:04;50.70;;;14.43;;
1725;SDS011;41776;48.260;8.928;2022-12-18T06:32:33;46.57;;;14.90;;
1725;SDS011;41776;48.260;8.928;2022-12-18T06:35:00;49.23;;;14.60;;
1725;SDS011;41776;48.260;8.928;2022-12-18T06:37:26;42.43;;;14.27;;
1725;SDS011;41776;48.260;8.928;2022-12-18T06:39:53;45.67;;;14.10;;
1725;SDS011;41776;48.260;8.928;2022-12-18T06:42:21;48.53;;;14.40;;
1725;SDS011;41776;48.260;8.928;2022-12-18T06:44:48;46.10;;;13.87;;
1725;SDS011;41776;48.260;8.928;2022-12-18T06:47:14;44.37;;;14.03;;
1725;SDS011;41776;48.260;8.928;2022-12-18T06:49:42;49.57;;;14.40;;
1725;SDS011;41776;48.260;8.928;2022-12-18T06:52:12;49.93;;;16.17;;
1725;SDS011;41776;48.260;8.928;2022-12-18T06:54:45;42.30;;;15.03;;
1725;SDS011;41776;48.260;8.928;2022-12-18T06:57:12;52.07;;;15.97;;
1725;SDS011;41776;48.260;8.928;2022-12-18T06:59:38;50.00;;;15.80;;
1725;SDS011;41776;48.260;8.928;2022-12-18T07:02:05;55.92;;;19.40;;
1725;SDS011;41776;48.260;8.928;2022-12-18T07:04:32;50.67;;;15.90;;
1725;SDS011;41776;48.260;8.928;2022-12-18T07:06:59;36.33;;;12.80;;
1725;SDS011;41776;48.260;8.928;2022-12-18T07:09:26;38.10;;;11.83;;
1725;SDS011;41776;48.260;8.928;2022-12-18T07:11:53;40.50;;;11.53;;
1725;SDS011;41776;48.260;8.928;2022-12-18T07:14:20;57.28;;;17.83;;
1725;SDS011;41776;48.260;8.928;2022-12-18T07:16:46;50.00;;;15.43;;
1725;SDS011;41776;48.260;8.928;2022-12-18T07:19:13;46.10;;;13.50;;
1725;SDS011;41776;48.260;8.928;2022-12-18T07:21:39;47.83;;;12.90;;
1725;SDS011;41776;48.260;8.928;2022-12-18T07:24:07;40.67;;;12.37;;
1725;SDS011;41776;48.260;8.928;2022-12-18T07:26:34;47.47;;;13.63;;
1725;SDS011;41776;48.260;8.928;2022-12-18T07:29:00;50.07;;;12.90;;
1725;SDS011;41776;48.260;8.928;2022-12-18T07:31:27;46.63;;;12.87;;
1725;SDS011;41776;48.260;8.928;2022-12-18T07:33:53;47.10;;;14.67;;
1725;SDS011;41776;48.260;8.928;2022-12-18T07:36:20;55.13;;;15.03;;
1725;SDS011;41776;48.260;8.928;2022-12-18T07:38:50;57.10;;;15.90;;
1725;SDS011;41776;48.260;8.928;2022-12-18T07:41:18;54.67;;;15.03;;
1725;SDS011;41776;48.260;8.928;2022-12-18T07:43:45;60.77;;;15.97;;
1725;SDS011;41776;48.260;8.928;2022-12-18T07:46:13;47.70;;;13.33;;
1725;SDS011;41776;48.260;8.928;2022-12-18T07:48:40;57.47;;;15.03;;
1725;SDS011;41776;48.260;8.928;2022-12-18T07:51:07;52.67;;;15.27;;
1725;SDS011;41776;48.260;8.928;2022-12-18T07:53:34;43.90;;;14.73;;
1725;SDS011;41776;48.260;8.928;2022-12-18T07:56:02;49.40;;;15.27;;
1725;SDS011;41776;48.260;8.928;2022-12-18T07:58:32;51.50;;;14.97;;
1725;SDS011;41776;48.260;8.928;2022-12-18T08:01:03;43.80;;;13.63;;
1725;SDS011;41776;48.260;8.928;2022-12-18T08:03:30;48.63;;;13.93;;
1725;SDS011;41776;48.260;8.928;2022-12-18T08:05:58;47.50;;;14.63;;
1725;SDS011;41776;48.260;8.928;2022-12-18T08:08:26;43.17;;;13.90;;
1725;SDS011;41776;48.260;8.928;2022-12-18T08:10:52;41.73;;;13.60;;
1725;SDS011;41776;48.260;8.928;2022-12-18T08:13:19;40.20;;;13.47;;
1725;SDS011;41776;48.260;8.928;2022-12-18T08:15:48;44.23;;;13.70;;
1725;SDS011;41776;48.260;8.928;2022-12-18T08:18:22;45.00;;;13.80;;
1725;SDS011;41776;48.260;8.928;2022-12-18T08:20:48;43.20;;;13.73;;
1725;SDS011;41776;48.260;8.928;2022-12-18T08:23:15;43.37;;;13.83;;
1725;SDS011;41776;48.260;8.928;2022-12-18T08:25:42;48.33;;;14.43;;
1725;SDS011;41776;48.260;8.928;2022-12-18T08:28:09;42.93;;;14.23;;
1725;SDS011;41776;48.260;8.928;2022-12-18T08:30:35;43.20;;;13.27;;
1725;SDS011;41776;48.260;8.928;2022-12-18T08:33:03;42.70;;;12.70;;
1725;SDS011;41776;48.260;8.928;2022-12-18T08:35:30;37.53;;;12.97;;
1725;SDS011;41776;48.260;8.928;2022-12-18T08:38:01;44.13;;;13.23;;
1725;SDS011;41776;48.260;8.928;2022-12-18T08:40:27;48.03;;;14.60;;
1725;SDS011;41776;48.260;8.928;2022-12-18T08:42:54;45.43;;;14.20;;
1725;SDS011;41776;48.260;8.928;2022-12-18T08:45:40;41.93;;;13.27;;
1725;SDS011;41776;48.260;8.928;2022-12-18T08:48:08;48.97;;;14.33;;
1725;SDS011;41776;48.260;8.928;2022-12-18T08:50:35;40.33;;;13.77;;
1725;SDS011;41776;48.260;8.928;2022-12-18T08:53:01;44.37;;;13.70;;
1725;SDS011;41776;48.260;8.928;2022-12-18T08:55:28;45.53;;;14.13;;
1725;SDS011;41776;48.260;8.928;2022-12-18T08:57:55;39.77;;;13.07;;
1725;SDS011;41776;48.260;8.928;2022-12-18T09:00:22;43.23;;;14.30;;
1725;SDS011;41776;48.260;8.928;2022-12-18T09:02:48;40.77;;;13.60;;
1725;SDS011;41776;48.260;8.928;2022-12-18T09:05:18;38.17;;;13.73;;
1725;SDS011;41776;48.260;8.928;2022-12-18T09:07:44;46.60;;;14.00;;
1725;SDS011;41776;48.260;8.928;2022-12-18T09:10:11;38.03;;;12.83;;
1725;SDS011;41776;48.260;8.928;2022-12-18T09:12:37;44.97;;;15.10;;
1725;SDS011;41776;48.260;8.928;2022-12-18T09:15:04;40.43;;;13.33;;
1725;SDS011;41776;48.260;8.928;2022-12-18T09:17:32;41.73;;;13.83;;
1725;SDS011;41776;48.260;8.928;2022-12-18T09:19:58;46.43;;;14.93;;
1725;SDS011;41776;48.260;8.928;2022-12-18T09:22:27;47.30;;;13.40;;
1725;SDS011;41776;48.260;8.928;2022-12-18T09:24:54;40.60;;;13.63;;
1725;SDS011;41776;48.260;8.928;2022-12-18T09:27:20;36.03;;;13.30;;
1725;SDS011;41776;48.260;8.928;2022-12-18T09:29:49;45.83;;;13.97;;
1725;SDS011;41776;48.260;8.928;2022-12-18T09:32:15;47.23;;;15.13;;
1725;SDS011;41776;48.260;8.928;2022-12-18T09:34:42;48.43;;;13.47;;
1725;SDS011;41776;48.260;8.928;2022-12-18T09:37:09;47.67;;;13.03;;
1725;SDS011;41776;48.260;8.928;2022-12-18T09:39:37;41.90;;;14.00;;
1725;SDS011;41776;48.260;8.928;2022-12-18T09:42:04;42.27;;;13.47;;
1725;SDS011;41776;48.260;8.928;2022-12-18T09:44:32;46.00;;;13.93;;
1725;SDS011;41776;48.260;8.928;2022-12-18T09:47:06;51.17;;;15.47;;
1725;SDS011;41776;48.260;8.928;2022-12-18T09:49:40;36.10;;;12.67;;
1725;SDS011;41776;48.260;8.928;2022-12-18T09:52:09;46.10;;;14.37;;
1725;SDS011;41776;48.260;8.928;2022-12-18T09:54:42;43.10;;;12.53;;
1725;SDS011;41776;48.260;8.928;2022-12-18T09:57:13;49.27;;;14.77;;
1725;SDS011;41776;48.260;8.928;2022-12-18T09:59:43;38.13;;;13.43;;
1725;SDS011;41776;48.260;8.928;2022-12-18T10:02:15;42.40;;;13.90;;
1725;SDS011;41776;48.260;8.928;2022-12-18T10:04:44;40.10;;;13.23;;
1725;SDS011;41776;48.260;8.928;2022-12-18T10:07:20;44.27;;;13.67;;
1725;SDS011;41776;48.260;8.928;2022-12-18T10:09:56;39.60;;;13.37;;
1725;SDS011;41776;48.260;8.928;2022-12-18T10:12:29;38.73;;;14.17;;
1725;SDS011;41776;48.260;8.928;2022-12-18T10:15:01;41.67;;;13.37;;
1725;SDS011;41776;48.260;8.928;2022-12-18T10:17:38;50.87;;;14.10;;
1725;SDS011;41776;48.260;8.928;2022-12-18T10:20:10;46.97;;;14.13;;
1725;SDS011;41776;48.260;8.928;2022-12-18T10:22:44;39.00;;;13.23;;
1725;SDS011;41776;48.260;8.928;2022-12-18T10:25:23;44.17;;;14.23;;
1725;SDS011;41776;48.260;8.928;2022-12-18T10:27:56;45.90;;;13.43;;
1725;SDS011;41776;48.260;8.928;2022-12-18T10:30:26;38.03;;;12.50;;
1725;SDS011;41776;48.260;8.928;2022-12-18T10:32:53;44.77;;;14.30;;
1725;SDS011;41776;48.260;8.928;2022-12-18T10:35:22;40.73;;;13.67;;
1725;SDS011;41776;48.260;8.928;2022-12-18T10:38:02;42.47;;;14.23;;
1725;SDS011;41776;48.260;8.928;2022-12-18T10:40:33;42.20;;;13.93;;
1725;SDS011;41776;48.260;8.928;2022-12-18T10:43:14;43.47;;;14.33;;
1725;SDS011;41776;48.260;8.928;2022-12-18T10:45:42;45.92;;;16.02;;
1725;SDS011;41776;48.260;8.928;2022-12-18T10:48:26;38.97;;;13.70;;
1725;SDS011;41776;48.260;8.928;2022-12-18T10:50:54;41.33;;;13.37;;
1725;SDS011;41776;48.260;8.928;2022-12-18T10:53:21;39.80;;;13.97;;
1725;SDS011;41776;48.260;8.928;2022-12-18T10:55:51;37.53;;;12.47;;
1725;SDS011;41776;48.260;8.928;2022-12-18T10:58:22;43.57;;;14.00;;
1725;SDS011;41776;48.260;8.928;2022-12-18T11:01:04;43.10;;;13.20;;
1725;SDS011;41776;48.260;8.928;2022-12-18T11:03:34;37.93;;;13.17;;
1725;SDS011;41776;48.260;8.928;2022-12-18T11:06:03;49.97;;;14.87;;
1725;SDS011;41776;48.260;8.928;2022-12-18T11:08:31;45.33;;;14.13;;
1725;SDS011;41776;48.260;8.928;2022-12-18T11:11:00;44.37;;;13.93;;
1725;SDS011;41776;48.260;8.928;2022-12-18T11:13:28;41.10;;;13.13;;
1725;SDS011;41776;48.260;8.928;2022-12-18T11:15:56;39.53;;;12.47;;
1725;SDS011;41776;48.260;8.928;2022-12-18T11:18:25;39.77;;;13.23;;
1725;SDS011;41776;48.260;8.928;2022-12-18T11:20:54;38.67;;;13.67;;
1725;SDS011;41776;48.260;8.928;2022-12-18T11:23:23;41.63;;;12.80;;
1725;SDS011;41776;48.260;8.928;2022-12-18T11:25:50;42.43;;;14.57;;
1725;SDS011;41776;48.260;8.928;2022-12-18T11:28:28;41.20;;;13.70;;
1725;SDS011;41776;48.260;8.928;2022-12-18T11:33:58;44.27;;;13.63;;
1725;SDS011;41776;48.260;8.928;2022-12-18T11:36:30;35.10;;;12.57;;
1725;SDS011;41776;48.260;8.928;2022-12-18T11:38:59;35.90;;;13.00;;
1725;SDS011;41776;48.260;8.928;2022-12-18T11:41:36;37.37;;;12.83;;
1725;SDS011;41776;48.260;8.928;2022-12-18T11:44:26;42.27;;;13.10;;
1725;SDS011;41776;48.260;8.928;2022-12-18T11:46:59;40.33;;;13.73;;
1725;SDS011;41776;48.260;8.928;2022-12-18T11:49:32;37.43;;;12.93;;
1725;SDS011;41776;48.260;8.928;2022-12-18T11:52:01;41.73;;;13.90;;
1725;SDS011;41776;48.260;8.928;2022-12-18T11:54:33;36.50;;;13.30;;
1725;SDS011;41776;48.260;8.928;2022-12-18T11:57:02;37.83;;;12.23;;
1725;SDS011;41776;48.260;8.928;2022-12-18T11:59:35;42.73;;;13.83;;
1725;SDS011;41776;48.260;8.928;2022-12-18T12:02:21;40.20;;;13.00;;
1725;SDS011;41776;48.260;8.928;2022-12-18T12:05:02;36.93;;;13.40;;
1725;SDS011;41776;48.260;8.928;2022-12-18T12:07:43;41.23;;;12.33;;
1725;SDS011;41776;48.260;8.928;2022-12-18T12:10:18;41.60;;;13.70;;
1725;SDS011;41776;48.260;8.928;2022-12-18T12:13:01;42.37;;;13.67;;
1725;SDS011;41776;48.260;8.928;2022-12-18T12:15:44;45.70;;;14.23;;
1725;SDS011;41776;48.260;8.928;2022-12-18T12:18:20;41.33;;;13.30;;
1725;SDS011;41776;48.260;8.928;2022-12-18T12:20:56;37.93;;;12.77;;
1725;SDS011;41776;48.260;8.928;2022-12-18T12:23:32;35.23;;;13.27;;
1725;SDS011;41776;48.260;8.928;2022-12-18T12:26:07;40.00;;;13.23;;
1725;SDS011;41776;48.260;8.928;2022-12-18T12:28:45;34.10;;;11.97;;
1725;SDS011;41776;48.260;8.928;2022-12-18T12:31:31;39.70;;;14.77;;
1725;SDS011;41776;48.260;8.928;2022-12-18T12:34:09;36.63;;;13.33;;
1725;SDS011;41776;48.260;8.928;2022-12-18T12:36:45;40.17;;;15.30;;
1725;SDS011;41776;48.260;8.928;2022-12-18T12:39:26;40.80;;;14.80;;
1725;SDS011;41776;48.260;8.928;2022-12-18T12:41:56;37.93;;;13.80;;
1725;SDS011;41776;48.260;8.928;2022-12-18T12:44:42;41.53;;;13.80;;
1725;SDS011;41776;48.260;8.928;2022-12-18T12:47:14;39.20;;;13.97;;
1725;SDS011;41776;48.260;8.928;2022-12-18T12:49:45;37.90;;;14.40;;
1725;SDS011;41776;48.260;8.928;2022-12-18T12:52:14;41.00;;;13.07;;
1725;SDS011;41776;48.260;8.928;2022-12-18T12:54:44;38.43;;;13.40;;
1725;SDS011;41776;48.260;8.928;2022-12-18T12:57:12;36.97;;;13.47;;
1725;SDS011;41776;48.260;8.928;2022-12-18T12:59:49;38.13;;;13.70;;
1725;SDS011;41776;48.260;8.928;2022-12-18T13:02:28;38.40;;;14.37;;
1725;SDS011;41776;48.260;8.928;2022-12-18T13:05:01;43.77;;;14.13;;
1725;SDS011;41776;48.260;8.928;2022-12-18T13:07:37;42.43;;;15.77;;
1725;SDS011;41776;48.260;8.928;2022-12-18T13:10:20;44.07;;;14.93;;
1725;SDS011;41776;48.260;8.928;2022-12-18T13:12:51;45.53;;;14.57;;
1725;SDS011;41776;48.260;8.928;2022-12-18T13:15:21;39.27;;;14.20;;
1725;SDS011;41776;48.260;8.928;2022-12-18T13:17:51;44.83;;;15.37;;
1725;SDS011;41776;48.260;8.928;2022-12-18T13:20:32;43.37;;;14.73;;
1725;SDS011;41776;48.260;8.928;2022-12-18T13:23:00;41.00;;;14.20;;
1725;SDS011;41776;48.260;8.928;2022-12-18T13:25:33;39.47;;;14.60;;
1725;SDS011;41776;48.260;8.928;2022-12-18T13:28:03;38.17;;;14.27;;
1725;SDS011;41776;48.260;8.928;2022-12-18T13:30:47;40.97;;;15.60;;
1725;SDS011;41776;48.260;8.928;2022-12-18T13:33:39;46.70;;;16.63;;
1725;SDS011;41776;48.260;8.928;2022-12-18T13:36:15;41.57;;;15.03;;
1725;SDS011;41776;48.260;8.928;2022-12-18T13:41:51;39.33;;;15.13;;
1725;SDS011;41776;48.260;8.928;2022-12-18T13:44:24;41.17;;;15.50;;
1725;SDS011;41776;48.260;8.928;2022-12-18T13:46:57;46.23;;;15.00;;
1725;SDS011;41776;48.260;8.928;2022-12-18T13:49:27;49.10;;;15.97;;
1725;SDS011;41776;48.260;8.928;2022-12-18T13:52:02;46.40;;;15.37;;
1725;SDS011;41776;48.260;8.928;2022-12-18T13:54:40;36.57;;;13.03;;
1725;SDS011;41776;48.260;8.928;2022-12-18T13:57:24;39.03;;;14.10;;
1725;SDS011;41776;48.260;8.928;2022-12-18T13:59:52;39.77;;;14.73;;
1725;SDS011;41776;48.260;8.928;2022-12-18T14:02:20;52.10;;;19.33;;
1725;SDS011;41776;48.260;8.928;2022-12-18T14:04:50;47.20;;;16.33;;
1725;SDS011;41776;48.260;8.928;2022-12-18T14:07:18;46.27;;;16.63;;
1725;SDS011;41776;48.260;8.928;2022-12-18T14:09:47;48.47;;;17.30;;
1725;SDS011;41776;48.260;8.928;2022-12-18T14:12:17;49.33;;;16.37;;
1725;SDS011;41776;48.260;8.928;2022-12-18T14:15:06;44.27;;;14.57;;
1725;SDS011;41776;48.260;8.928;2022-12-18T14:17:42;45.30;;;15.70;;
1725;SDS011;41776;48.260;8.928;2022-12-18T14:20:14;48.17;;;16.60;;
1725;SDS011;41776;48.260;8.928;2022-12-18T14:22:42;53.47;;;18.47;;
1725;SDS011;41776;48.260;8.928;2022-12-18T14:25:14;48.77;;;16.70;;
1725;SDS011;41776;48.260;8.928;2022-12-18T14:27:45;54.87;;;16.80;;
1725;SDS011;41776;48.260;8.928;2022-12-18T14:30:27;55.80;;;17.70;;
1725;SDS011;41776;48.260;8.928;2022-12-18T14:33:02;55.97;;;17.20;;
1725;SDS011;41776;48.260;8.928;2022-12-18T14:35:32;42.17;;;15.97;;
1725;SDS011;41776;48.260;8.928;2022-12-18T14:40:53;51.57;;;17.17;;
1725;SDS011;41776;48.260;8.928;2022-12-18T14:43:20;49.57;;;17.03;;
1725;SDS011;41776;48.260;8.928;2022-12-18T14:45:48;49.83;;;17.70;;
1725;SDS011;41776;48.260;8.928;2022-12-18T14:48:16;55.43;;;17.90;;
1725;SDS011;41776;48.260;8.928;2022-12-18T14:50:55;62.53;;;18.40;;
1725;SDS011;41776;48.260;8.928;2022-12-18T14:53:32;54.70;;;18.33;;
1725;SDS011;41776;48.260;8.928;2022-12-18T14:56:01;55.80;;;17.13;;
1725;SDS011;41776;48.260;8.928;2022-12-18T14:58:28;52.23;;;19.07;;
1725;SDS011;41776;48.260;8.928;2022-12-18T15:00:55;61.53;;;17.13;;
1725;SDS011;41776;48.260;8.928;2022-12-18T15:03:21;55.33;;;18.53;;